createdAt,value
2018-04-10T00:00:35.931Z,77.67
2018-04-10T00:03:04.252Z,80.80
2018-04-10T00:05:32.580Z,77.43
2018-04-10T00:08:00.919Z,68.40
2018-04-10T00:10:29.248Z,72.00
2018-04-10T00:12:57.592Z,78.23
2018-04-10T00:15:25.915Z,79.00
2018-04-10T00:17:54.260Z,77.27
2018-04-10T00:20:22.586Z,95.40
2018-04-10T00:22:50.931Z,89.80
2018-04-10T00:25:19.256Z,84.73
2018-04-10T00:27:47.590Z,81.03
2018-04-10T00:30:15.911Z,79.50
2018-04-10T00:32:44.256Z,83.20
2018-04-10T00:35:12.589Z,81.93
2018-04-10T00:37:40.932Z,74.77
2018-04-10T00:40:09.256Z,76.00
2018-04-10T00:42:37.604Z,82.50
2018-04-10T00:45:05.923Z,80.53
2018-04-10T00:47:34.276Z,79.10
2018-04-10T00:50:02.605Z,96.67
2018-04-10T00:52:30.944Z,86.43
2018-04-10T00:54:59.271Z,83.30
2018-04-10T00:57:27.616Z,93.53
2018-04-10T00:59:55.940Z,91.27
2018-04-10T01:02:24.284Z,84.90
2018-04-10T01:04:52.607Z,82.53
2018-04-10T01:07:20.956Z,81.77
2018-04-10T01:09:49.277Z,95.17
2018-04-10T01:12:17.620Z,93.53
2018-04-10T01:14:45.948Z,91.60
2018-04-10T01:17:14.288Z,81.67
2018-04-10T01:19:42.639Z,89.17
2018-04-10T01:22:10.983Z,87.77
2018-04-10T01:24:39.307Z,78.03
2018-04-10T01:27:07.651Z,88.43
2018-04-10T01:29:35.999Z,97.97
2018-04-10T01:32:04.359Z,94.90
2018-04-10T01:34:32.681Z,96.50
2018-04-10T01:37:01.008Z,90.80
2018-04-10T01:39:29.352Z,95.50
2018-04-10T01:41:57.681Z,94.87
2018-04-10T01:44:26.028Z,92.20
2018-04-10T01:46:54.362Z,98.00
2018-04-10T01:49:22.707Z,102.30
2018-04-10T01:51:51.040Z,85.83
2018-04-10T01:54:19.392Z,83.03
2018-04-10T01:56:47.721Z,80.73
2018-04-10T01:59:16.063Z,80.43
2018-04-10T02:01:44.387Z,78.27
2018-04-10T02:04:12.728Z,81.77
2018-04-10T02:06:41.062Z,81.37
2018-04-10T02:09:09.409Z,75.40
2018-04-10T02:11:37.733Z,90.07
2018-04-10T02:14:06.080Z,83.00
2018-04-10T02:16:34.419Z,97.60
2018-04-10T02:19:02.769Z,91.23
2018-04-10T02:21:31.092Z,93.83
2018-04-10T02:23:59.448Z,95.77
2018-04-10T02:26:27.780Z,103.18
2018-04-10T02:28:56.128Z,106.70
2018-04-10T02:31:24.459Z,109.67
2018-04-10T02:33:52.822Z,100.10
2018-04-10T02:36:21.152Z,102.20
2018-04-10T02:38:49.505Z,97.37
2018-04-10T02:41:17.832Z,97.70
2018-04-10T02:43:46.180Z,96.10
2018-04-10T02:46:14.495Z,98.60
2018-04-10T02:48:42.840Z,97.83
2018-04-10T02:51:11.168Z,103.83
2018-04-10T02:53:39.512Z,88.83
2018-04-10T02:56:07.836Z,89.10
2018-04-10T02:58:36.193Z,102.67
2018-04-10T03:01:04.515Z,87.47
2018-04-10T03:03:32.860Z,92.70
2018-04-10T03:06:01.186Z,87.27
2018-04-10T03:08:29.537Z,87.30
2018-04-10T03:10:57.860Z,93.10
2018-04-10T03:13:26.212Z,95.70
2018-04-10T03:15:54.537Z,91.00
2018-04-10T03:18:22.862Z,99.33
2018-04-10T03:20:51.205Z,87.43
2018-04-10T03:23:19.529Z,83.23
2018-04-10T03:25:47.872Z,88.50
2018-04-10T03:28:16.209Z,90.93
2018-04-10T03:30:44.558Z,103.50
2018-04-10T03:33:12.888Z,93.00
2018-04-10T03:35:41.235Z,89.00
2018-04-10T03:38:09.560Z,94.87
2018-04-10T03:40:37.914Z,87.67
2018-04-10T03:43:06.236Z,87.83
2018-04-10T03:45:34.589Z,95.47
2018-04-10T03:48:02.911Z,90.03
2018-04-10T03:50:31.265Z,91.73
2018-04-10T03:52:59.592Z,80.77
2018-04-10T03:55:27.935Z,83.67
2018-04-10T03:57:56.260Z,78.47
2018-04-10T04:00:24.608Z,87.37
2018-04-10T04:02:52.941Z,85.87
2018-04-10T04:05:21.288Z,90.40
2018-04-10T04:07:49.611Z,92.53
2018-04-10T04:10:17.960Z,88.50
2018-04-10T04:12:46.280Z,90.77
2018-04-10T04:15:14.624Z,94.40
2018-04-10T04:17:42.953Z,94.73
2018-04-10T04:20:23.124Z,96.30
2018-04-10T04:22:51.459Z,101.40
2018-04-10T04:25:19.812Z,98.80
2018-04-10T04:27:48.142Z,102.80
2018-04-10T04:30:16.492Z,99.03
2018-04-10T04:32:44.816Z,97.27
2018-04-10T04:35:13.172Z,95.37
2018-04-10T04:37:41.496Z,91.87
2018-04-10T04:40:09.857Z,93.18
2018-04-10T04:42:38.172Z,94.50
2018-04-10T04:45:06.531Z,85.43
2018-04-10T04:47:34.865Z,101.30
2018-04-10T04:50:03.224Z,84.03
2018-04-10T04:52:31.540Z,89.40
2018-04-10T04:54:59.892Z,91.67
2018-04-10T04:57:28.211Z,87.60
2018-04-10T04:59:56.560Z,93.20
2018-04-10T05:02:24.900Z,85.73
2018-04-10T05:04:53.260Z,86.83
2018-04-10T05:07:21.583Z,84.63
2018-04-10T05:09:49.939Z,89.73
2018-04-10T05:12:18.264Z,86.77
2018-04-10T05:14:46.620Z,91.97
2018-04-10T05:17:14.947Z,80.82
2018-04-10T05:19:43.304Z,89.67
2018-04-10T05:22:11.636Z,80.40
2018-04-10T05:24:39.992Z,83.30
2018-04-10T05:27:08.329Z,95.50
2018-04-10T05:29:36.655Z,83.30
2018-04-10T05:32:05.012Z,90.40
2018-04-10T05:34:33.340Z,87.03
2018-04-10T05:37:01.692Z,76.73
2018-04-10T05:39:30.019Z,83.30
2018-04-10T05:41:58.373Z,80.30
2018-04-10T05:44:26.716Z,93.90
2018-04-10T05:46:55.069Z,83.53
2018-04-10T05:49:23.404Z,90.23
2018-04-10T05:51:51.765Z,83.23
2018-04-10T05:54:20.092Z,81.37
2018-04-10T05:56:48.452Z,79.50
2018-04-10T05:59:16.783Z,87.63
2018-04-10T06:01:45.137Z,77.70
2018-04-10T06:04:13.460Z,82.07
2018-04-10T06:06:41.806Z,89.43
2018-04-10T06:09:10.144Z,91.70
2018-04-10T06:11:38.500Z,82.27
2018-04-10T06:14:06.840Z,77.20
2018-04-10T06:16:35.184Z,76.57
2018-04-10T06:19:03.529Z,81.65
2018-04-10T06:21:31.884Z,90.00
2018-04-10T06:24:00.962Z,84.07
2018-04-10T06:26:29.309Z,79.23
2018-04-10T06:28:57.641Z,79.27
2018-04-10T06:31:25.997Z,87.23
2018-04-10T06:33:54.336Z,74.33
2018-04-10T06:36:23.684Z,76.43
2018-04-10T06:38:52.025Z,86.83
2018-04-10T06:41:20.367Z,76.12
2018-04-10T06:43:48.709Z,72.23
2018-04-10T06:46:17.066Z,68.43
2018-04-10T06:48:45.393Z,79.73
2018-04-10T06:51:13.744Z,64.90
2018-04-10T06:53:42.081Z,76.93
2018-04-10T06:56:10.432Z,74.12
2018-04-10T06:58:38.759Z,74.28
2018-04-10T07:01:07.116Z,69.07
2018-04-10T07:03:35.453Z,67.50
2018-04-10T07:06:03.814Z,67.20
2018-04-10T07:08:32.174Z,62.77
2018-04-10T07:11:00.624Z,65.97
2018-04-10T07:13:28.964Z,66.97
2018-04-10T07:15:57.308Z,66.62
2018-04-10T07:18:25.639Z,64.90
2018-04-10T07:20:54.147Z,63.07
2018-04-10T07:23:22.689Z,59.30
2018-04-10T07:25:51.003Z,59.07
2018-04-10T07:28:19.368Z,61.65
2018-04-10T07:30:47.708Z,55.57
2018-04-10T07:33:16.062Z,53.15
2018-04-10T07:35:44.393Z,56.22
2018-04-10T07:38:12.740Z,56.20
2018-04-10T07:40:41.071Z,70.97
2018-04-10T07:43:09.856Z,52.10
2018-04-10T07:45:38.189Z,57.70
2018-04-10T07:48:06.540Z,48.50
2018-04-10T07:50:34.864Z,52.70
2018-04-10T07:53:03.208Z,55.10
2018-04-10T07:55:31.541Z,49.20
2018-04-10T07:57:59.899Z,49.05
2018-04-10T08:00:28.235Z,61.70
2018-04-10T08:02:56.587Z,59.27
2018-04-10T08:05:24.922Z,53.53
2018-04-10T08:07:53.273Z,53.07
2018-04-10T08:10:21.596Z,52.37
2018-04-10T08:12:49.949Z,63.37
2018-04-10T08:15:18.283Z,56.90
2018-04-10T08:17:46.629Z,55.35
2018-04-10T08:20:14.959Z,57.10
2018-04-10T08:22:44.187Z,55.42
2018-04-10T08:25:12.524Z,52.43
2018-04-10T08:27:40.872Z,56.30
2018-04-10T08:30:09.206Z,64.17
2018-04-10T08:32:37.556Z,55.57
2018-04-10T08:35:05.888Z,57.70
2018-04-10T08:37:34.240Z,51.83
2018-04-10T08:40:02.563Z,51.77
2018-04-10T08:42:30.912Z,56.13
2018-04-10T08:44:59.251Z,53.53
2018-04-10T08:47:27.596Z,51.07
2018-04-10T08:49:55.928Z,54.70
2018-04-10T08:52:24.280Z,65.30
2018-04-10T08:54:52.604Z,52.03
2018-04-10T08:57:20.956Z,49.42
2018-04-10T08:59:49.288Z,52.63
2018-04-10T09:02:18.516Z,56.73
2018-04-10T09:04:46.844Z,51.37
2018-04-10T09:07:15.196Z,60.73
2018-04-10T09:09:43.532Z,52.60
2018-04-10T09:12:11.884Z,54.50
2018-04-10T09:14:40.222Z,63.30
2018-04-10T09:17:08.569Z,53.97
2018-04-10T09:19:36.898Z,53.90
2018-04-10T09:22:05.244Z,53.10
2018-04-10T09:24:33.576Z,55.30
2018-04-10T09:27:01.977Z,52.27
2018-04-10T09:29:30.296Z,56.60
2018-04-10T09:31:58.630Z,53.63
2018-04-10T09:34:26.985Z,50.70
2018-04-10T09:36:55.310Z,46.95
2018-04-10T09:39:23.664Z,52.87
2018-04-10T09:41:52.865Z,55.03
2018-04-10T09:44:21.224Z,55.10
2018-04-10T09:46:49.557Z,57.73
2018-04-10T09:49:17.912Z,48.40
2018-04-10T09:51:46.246Z,49.73
2018-04-10T09:54:14.601Z,55.33
2018-04-10T09:56:42.937Z,72.57
2018-04-10T09:59:11.289Z,54.70
2018-04-10T10:01:39.753Z,59.73
2018-04-10T10:04:08.944Z,50.37
2018-04-10T10:06:37.281Z,62.60
2018-04-10T10:09:06.440Z,49.80
2018-04-10T10:11:34.772Z,55.97
2018-04-10T10:14:03.133Z,71.35
2018-04-10T10:16:32.409Z,56.67
2018-04-10T10:19:00.765Z,62.70
2018-04-10T10:21:29.096Z,56.13
2018-04-10T10:23:57.460Z,66.03
2018-04-10T10:26:25.793Z,57.30
2018-04-10T10:28:54.152Z,59.77
2018-04-10T10:31:22.484Z,60.10
2018-04-10T10:33:50.836Z,62.08
2018-04-10T10:36:19.168Z,64.07
2018-04-10T10:38:47.538Z,61.05
2018-04-10T10:41:15.868Z,62.15
2018-04-10T10:43:44.225Z,60.20
2018-04-10T10:46:12.556Z,68.30
2018-04-10T10:48:40.965Z,60.95
2018-04-10T10:51:09.352Z,66.40
2018-04-10T10:53:37.702Z,61.97
2018-04-10T10:56:06.040Z,58.80
2018-04-10T10:58:34.396Z,59.60
2018-04-10T11:01:02.779Z,64.10
2018-04-10T11:03:31.094Z,59.03
2018-04-10T11:05:59.429Z,55.50
2018-04-10T11:08:27.788Z,69.83
2018-04-10T11:10:56.117Z,58.30
2018-04-10T11:13:24.472Z,64.37
2018-04-10T11:15:52.797Z,65.63
2018-04-10T11:18:21.156Z,70.20
2018-04-10T11:20:49.497Z,64.83
2018-04-10T11:23:17.857Z,61.20
2018-04-10T11:25:46.193Z,53.60
2018-04-10T11:28:14.548Z,58.53
2018-04-10T11:30:42.881Z,66.83
2018-04-10T11:33:11.214Z,64.75
2018-04-10T11:35:39.572Z,61.10
2018-04-10T11:38:07.901Z,62.17
2018-04-10T11:40:36.309Z,59.73
2018-04-10T11:43:04.641Z,69.00
2018-04-10T11:45:32.992Z,64.53
2018-04-10T11:48:01.330Z,61.15
2018-04-10T11:50:29.681Z,59.30
2018-04-10T11:52:58.017Z,63.80
2018-04-10T11:55:26.368Z,64.30
2018-04-10T11:57:54.700Z,56.80
2018-04-10T12:00:23.126Z,63.10
2018-04-10T12:02:51.453Z,55.70
2018-04-10T12:05:19.804Z,59.57
2018-04-10T12:07:48.141Z,66.62
2018-04-10T12:10:16.492Z,62.85
2018-04-10T12:12:44.824Z,57.23
2018-04-10T12:15:13.173Z,53.07
2018-04-10T12:17:41.504Z,59.87
2018-04-10T12:20:10.744Z,56.60
2018-04-10T12:22:39.071Z,56.13
2018-04-10T12:25:07.430Z,58.37
2018-04-10T12:27:35.758Z,62.08
2018-04-10T12:30:04.116Z,54.25
2018-04-10T12:32:32.452Z,59.72
2018-04-10T12:35:00.809Z,59.72
2018-04-10T12:37:29.136Z,54.37
2018-04-10T12:39:57.651Z,50.53
2018-04-10T12:42:25.965Z,55.63
2018-04-10T12:44:54.316Z,59.23
2018-04-10T12:47:22.652Z,60.10
2018-04-10T12:49:51.000Z,63.78
2018-04-10T12:52:19.330Z,52.77
2018-04-10T12:54:47.680Z,65.83
2018-04-10T12:57:16.008Z,52.63
2018-04-10T12:59:45.083Z,58.47
2018-04-10T13:02:13.474Z,60.47
2018-04-10T13:04:41.773Z,55.60
2018-04-10T13:07:10.113Z,64.87
2018-04-10T13:09:38.465Z,67.63
2018-04-10T13:12:06.787Z,57.58
2018-04-10T13:14:35.140Z,47.63
2018-04-10T13:17:03.469Z,53.83
2018-04-10T13:19:31.821Z,58.87
2018-04-10T13:22:00.152Z,48.93
2018-04-10T13:24:28.495Z,53.60
2018-04-10T13:26:56.944Z,52.00
2018-04-10T13:29:25.334Z,48.55
2018-04-10T13:31:53.670Z,51.60
2018-04-10T13:34:21.994Z,53.40
2018-04-10T13:36:50.345Z,61.23
2018-04-10T13:39:19.396Z,51.20
2018-04-10T13:41:47.756Z,52.13
2018-04-10T13:44:16.089Z,50.00
2018-04-10T13:46:44.439Z,51.22
2018-04-10T13:49:12.773Z,50.10
2018-04-10T13:51:41.120Z,51.70
2018-04-10T13:54:09.447Z,50.43
2018-04-10T13:56:37.805Z,58.03
2018-04-10T13:59:06.144Z,54.47
2018-04-10T14:01:34.538Z,58.83
2018-04-10T14:04:02.886Z,49.03
2018-04-10T14:06:31.240Z,44.30
2018-04-10T14:08:59.572Z,44.88
2018-04-10T14:11:28.048Z,49.80
2018-04-10T14:13:56.368Z,49.53
2018-04-10T14:16:24.717Z,54.07
2018-04-10T14:18:53.058Z,54.63
2018-04-10T14:21:21.500Z,51.90
2018-04-10T14:23:49.833Z,50.13
2018-04-10T14:26:18.408Z,49.58
2018-04-10T14:28:46.795Z,44.27
2018-04-10T14:31:15.178Z,50.33
2018-04-10T14:33:43.512Z,54.60
2018-04-10T14:36:11.897Z,52.33
2018-04-10T14:38:40.212Z,54.85
2018-04-10T14:41:08.569Z,43.30
2018-04-10T14:43:36.904Z,49.80
2018-04-10T14:46:05.251Z,53.27
2018-04-10T14:48:33.734Z,51.10
2018-04-10T14:51:02.072Z,59.00
2018-04-10T14:53:30.424Z,40.30
2018-04-10T14:55:58.752Z,47.10
2018-04-10T14:58:27.096Z,41.73
2018-04-10T15:00:55.436Z,60.37
2018-04-10T15:03:23.760Z,43.67
2018-04-10T15:05:52.123Z,45.65
2018-04-10T15:08:20.455Z,47.50
2018-04-10T15:10:48.949Z,50.23
2018-04-10T15:13:17.268Z,52.40
2018-04-10T15:15:45.924Z,47.53
2018-04-10T15:18:14.256Z,58.07
2018-04-10T15:20:42.796Z,44.37
2018-04-10T15:23:11.124Z,41.33
2018-04-10T15:25:39.471Z,41.33
2018-04-10T15:28:07.828Z,43.93
2018-04-10T15:30:36.185Z,43.35
2018-04-10T15:33:04.517Z,47.90
2018-04-10T15:35:33.663Z,46.47
2018-04-10T15:38:02.017Z,43.93
2018-04-10T15:40:30.372Z,45.90
2018-04-10T15:42:58.724Z,44.75
2018-04-10T15:45:27.057Z,43.65
2018-04-10T15:47:55.404Z,45.03
2018-04-10T15:50:23.779Z,63.10
2018-04-10T15:52:52.132Z,48.30
2018-04-10T15:55:21.376Z,42.33
2018-04-10T15:57:49.932Z,39.00
2018-04-10T16:00:18.269Z,42.43
2018-04-10T16:02:46.624Z,46.97
2018-04-10T16:05:14.952Z,48.20
2018-04-10T16:07:43.304Z,43.55
2018-04-10T16:10:11.633Z,46.83
2018-04-10T16:12:40.936Z,43.93
2018-04-10T16:15:09.261Z,44.50
2018-04-10T16:17:37.615Z,49.80
2018-04-10T16:20:05.944Z,44.63
2018-04-10T16:22:34.297Z,44.70
2018-04-10T16:25:02.629Z,40.92
2018-04-10T16:27:30.977Z,42.37
2018-04-10T16:29:59.308Z,39.60
2018-04-10T16:32:27.669Z,41.43
2018-04-10T16:34:55.999Z,50.80
2018-04-10T16:37:24.343Z,43.17
2018-04-10T16:39:52.674Z,42.67
2018-04-10T16:42:21.025Z,43.43
2018-04-10T16:44:49.356Z,47.33
2018-04-10T16:47:17.728Z,53.28
2018-04-10T16:49:46.040Z,51.97
2018-04-10T16:52:14.396Z,38.20
2018-04-10T16:54:43.656Z,39.25
2018-04-10T16:57:12.011Z,52.80
2018-04-10T16:59:40.340Z,52.17
2018-04-10T17:02:08.700Z,47.05
2018-04-10T17:04:37.032Z,47.33
2018-04-10T17:07:06.304Z,43.73
2018-04-10T17:09:34.636Z,40.10
2018-04-10T17:12:03.023Z,56.03
2018-04-10T17:14:31.348Z,51.75
2018-04-10T17:16:59.701Z,43.90
2018-04-10T17:19:28.036Z,45.90
2018-04-10T17:21:56.395Z,46.13
2018-04-10T17:24:24.723Z,55.57
2018-04-10T17:26:53.068Z,44.92
2018-04-10T17:29:21.400Z,56.73
2018-04-10T17:31:49.773Z,47.00
2018-04-10T17:34:19.125Z,48.03
2018-04-10T17:36:47.505Z,57.13
2018-04-10T17:39:15.828Z,54.07
2018-04-10T17:41:44.163Z,47.53
2018-04-10T17:44:12.513Z,53.92
2018-04-10T17:46:40.839Z,47.62
2018-04-10T17:49:09.195Z,51.55
2018-04-10T17:51:37.529Z,45.80
2018-04-10T17:54:06.781Z,42.57
2018-04-10T17:56:36.075Z,37.43
2018-04-10T17:59:04.429Z,46.37
2018-04-10T18:01:32.763Z,48.53
2018-04-10T18:04:01.120Z,40.67
2018-04-10T18:06:30.413Z,43.77
2018-04-10T18:08:58.761Z,31.67
2018-04-10T18:11:27.087Z,29.67
2018-04-10T18:13:55.444Z,35.38
2018-04-10T18:16:24.736Z,36.37
2018-04-10T18:18:53.128Z,33.43
2018-04-10T18:21:21.460Z,33.25
2018-04-10T18:23:49.819Z,35.00
2018-04-10T18:26:18.416Z,39.37
2018-04-10T18:28:46.744Z,36.70
2018-04-10T18:31:15.071Z,38.70
2018-04-10T18:33:43.425Z,33.47
2018-04-10T18:36:11.774Z,36.00
2018-04-10T18:38:40.121Z,38.43
2018-04-10T18:41:08.444Z,32.70
2018-04-10T18:43:36.803Z,34.97
2018-04-10T18:46:05.124Z,46.10
2018-04-10T18:48:33.473Z,38.80
2018-04-10T18:51:01.809Z,37.88
2018-04-10T18:53:30.152Z,37.13
2018-04-10T18:55:58.481Z,33.23
2018-04-10T18:58:26.835Z,33.55
2018-04-10T19:00:55.164Z,48.87
2018-04-10T19:03:23.538Z,41.28
2018-04-10T19:05:51.869Z,42.03
2018-04-10T19:08:20.220Z,36.50
2018-04-10T19:10:48.552Z,39.27
2018-04-10T19:13:17.316Z,32.67
2018-04-10T19:15:45.647Z,50.90
2018-04-10T19:18:14.005Z,39.90
2018-04-10T19:20:42.328Z,42.50
2018-04-10T19:23:10.724Z,33.70
2018-04-10T19:25:39.178Z,37.95
2018-04-10T19:28:07.492Z,38.37
2018-04-10T19:30:35.844Z,48.93
2018-04-10T19:33:04.171Z,45.57
2018-04-10T19:35:32.529Z,40.37
2018-04-10T19:38:00.868Z,47.77
2018-04-10T19:40:29.219Z,41.80
2018-04-10T19:42:57.543Z,41.20
2018-04-10T19:45:26.158Z,42.23
2018-04-10T19:47:54.491Z,46.50
2018-04-10T19:50:22.884Z,41.15
2018-04-10T19:52:51.562Z,44.53
2018-04-10T19:55:19.901Z,42.97
2018-04-10T19:57:48.234Z,50.20
2018-04-10T20:00:16.598Z,52.17
2018-04-10T20:02:44.923Z,39.87
2018-04-10T20:05:13.276Z,37.97
2018-04-10T20:07:41.603Z,42.80
2018-04-10T20:10:09.952Z,42.37
2018-04-10T20:12:38.276Z,42.00
2018-04-10T20:15:06.627Z,47.07
2018-04-10T20:17:34.961Z,54.47
2018-04-10T20:20:03.307Z,41.47
2018-04-10T20:22:31.636Z,45.63
2018-04-10T20:24:59.984Z,49.13
2018-04-10T20:27:28.309Z,51.50
2018-04-10T20:29:56.662Z,45.80
2018-04-10T20:32:24.988Z,52.57
2018-04-10T20:34:53.332Z,48.37
2018-04-10T20:37:21.660Z,50.83
2018-04-10T20:39:50.016Z,55.20
2018-04-10T20:42:18.336Z,46.13
2018-04-10T20:44:46.691Z,45.40
2018-04-10T20:47:15.111Z,46.80
2018-04-10T20:49:43.448Z,48.20
2018-04-10T20:52:11.771Z,45.90
2018-04-10T20:54:40.168Z,44.13
2018-04-10T20:57:08.496Z,49.87
2018-04-10T20:59:36.818Z,52.90
2018-04-10T21:02:05.165Z,54.30
2018-04-10T21:04:33.488Z,44.00
2018-04-10T21:07:01.835Z,45.43
2018-04-10T21:09:30.160Z,53.23
2018-04-10T21:11:58.578Z,41.50
2018-04-10T21:14:26.893Z,45.37
2018-04-10T21:16:55.239Z,41.30
2018-04-10T21:19:23.564Z,45.57
2018-04-10T21:21:51.907Z,45.00
2018-04-10T21:24:20.231Z,51.77
2018-04-10T21:26:48.575Z,48.50
2018-04-10T21:29:16.900Z,52.60
2018-04-10T21:31:45.287Z,45.97
2018-04-10T21:34:13.600Z,45.77
2018-04-10T21:36:41.944Z,48.50
2018-04-10T21:39:10.270Z,51.13
2018-04-10T21:41:38.619Z,48.40
2018-04-10T21:44:06.944Z,59.73
2018-04-10T21:46:35.296Z,46.87
2018-04-10T21:49:03.635Z,44.67
2018-04-10T21:51:31.988Z,56.10
2018-04-10T21:54:00.364Z,53.03
2018-04-10T21:56:28.716Z,44.47
2018-04-10T21:58:57.048Z,46.20
2018-04-10T22:01:25.404Z,44.73
2018-04-10T22:03:53.737Z,51.07
2018-04-10T22:06:22.100Z,47.50
2018-04-10T22:08:50.468Z,43.07
2018-04-10T22:11:18.789Z,55.60
2018-04-10T22:13:47.120Z,47.80
2018-04-10T22:16:15.471Z,46.70
2018-04-10T22:18:43.805Z,50.27
2018-04-10T22:21:12.152Z,46.90
2018-04-10T22:23:40.492Z,49.20
2018-04-10T22:26:08.860Z,49.93
2018-04-10T22:28:37.209Z,58.73
2018-04-10T22:31:05.560Z,45.80
2018-04-10T22:33:33.872Z,51.05
2018-04-10T22:36:02.228Z,46.55
2018-04-10T22:38:30.569Z,48.10
2018-04-10T22:40:58.998Z,41.63
2018-04-10T22:43:27.320Z,43.90
2018-04-10T22:45:55.720Z,48.57
2018-04-10T22:48:24.025Z,48.90
2018-04-10T22:50:52.388Z,47.25
2018-04-10T22:53:20.755Z,44.10
2018-04-10T22:55:49.113Z,40.38
2018-04-10T22:58:17.460Z,54.75
2018-04-10T23:00:52.470Z,44.42
2018-04-10T23:03:20.806Z,43.15
2018-04-10T23:05:49.157Z,45.67
2018-04-10T23:08:17.523Z,55.75
2018-04-10T23:10:45.873Z,48.38
2018-04-10T23:13:14.237Z,43.83
2018-04-10T23:15:42.576Z,43.35
2018-04-10T23:18:10.940Z,50.08
2018-04-10T23:20:39.286Z,38.00
2018-04-10T23:23:07.644Z,39.35
2018-04-10T23:25:35.993Z,47.17
2018-04-10T23:28:04.353Z,42.30
2018-04-10T23:30:32.700Z,48.95
2018-04-10T23:33:01.064Z,40.12
2018-04-10T23:35:29.414Z,42.60
2018-04-10T23:37:57.774Z,47.53
2018-04-10T23:40:26.115Z,49.65
2018-04-10T23:42:54.472Z,42.75
2018-04-10T23:45:22.813Z,46.55
2018-04-10T23:47:51.177Z,48.67
2018-04-10T23:50:19.519Z,40.63
2018-04-10T23:52:47.873Z,43.55
2018-04-10T23:55:16.208Z,39.80
2018-04-10T23:57:44.570Z,50.28
